createdAt,value
2018-04-23T00:01:08.161Z,79.53
2018-04-23T00:06:09.124Z,78.55
2018-04-23T00:11:10.078Z,81.62
2018-04-23T00:16:11.032Z,79.66
2018-04-23T00:21:12.010Z,81.67
2018-04-23T00:26:13.011Z,81.83
2018-04-23T00:31:13.973Z,83.45
2018-04-23T00:36:14.933Z,82.69
2018-04-23T00:41:15.895Z,83.03
2018-04-23T00:46:16.873Z,83.05
2018-04-23T00:51:17.852Z,83.46
2018-04-23T00:56:18.823Z,83.22
2018-04-23T01:01:19.786Z,84.33
2018-04-23T01:06:20.811Z,84.26
2018-04-23T01:11:21.764Z,84.38
2018-04-23T01:16:22.712Z,83.95
2018-04-23T01:21:23.687Z,84.50
2018-04-23T01:26:24.657Z,85.79
2018-04-23T01:31:25.620Z,86.20
2018-04-23T01:36:26.572Z,84.97
2018-04-23T01:41:27.519Z,85.04
2018-04-23T01:46:28.475Z,85.35
2018-04-23T01:51:29.444Z,85.36
2018-04-23T01:56:30.411Z,85.26
2018-04-23T02:01:31.366Z,85.03
2018-04-23T02:06:32.327Z,85.70
2018-04-23T02:11:33.276Z,84.75
2018-04-23T02:16:34.233Z,84.32
2018-04-23T02:21:35.206Z,84.86
2018-04-23T02:26:36.219Z,84.91
2018-04-23T02:31:37.190Z,84.67
2018-04-23T02:36:38.135Z,84.74
2018-04-23T02:41:39.086Z,83.91
2018-04-23T02:46:40.051Z,85.14
2018-04-23T02:51:41.009Z,85.59
2018-04-23T02:56:41.987Z,85.65
2018-04-23T03:01:42.950Z,85.84
2018-04-23T03:06:43.927Z,84.29
2018-04-23T03:11:44.906Z,85.71
2018-04-23T03:16:45.882Z,86.71
2018-04-23T03:21:46.881Z,86.71
2018-04-23T03:26:47.876Z,86.69
2018-04-23T03:31:48.826Z,85.23
2018-04-23T03:36:49.776Z,84.42
2018-04-23T03:41:50.725Z,84.18
2018-04-23T03:46:51.684Z,85.02
2018-04-23T03:51:52.654Z,84.95
2018-04-23T03:56:53.639Z,85.03
2018-04-23T04:01:54.600Z,87.03
2018-04-23T04:06:55.573Z,86.52
2018-04-23T04:11:56.540Z,85.14
2018-04-23T04:16:59.415Z,85.10
2018-04-23T04:22:00.363Z,84.91
2018-04-23T04:27:01.349Z,84.92
2018-04-23T04:32:02.299Z,85.79
2018-04-23T04:37:04.159Z,84.81
2018-04-23T04:42:05.128Z,84.00
2018-04-23T04:47:06.094Z,82.93
2018-04-23T04:52:07.039Z,82.63
2018-04-23T04:57:08.042Z,82.30
2018-04-23T05:02:09.000Z,82.84
2018-04-23T05:07:09.984Z,83.84
2018-04-23T05:12:10.997Z,84.05
2018-04-23T05:17:11.976Z,82.08
2018-04-23T05:22:12.931Z,80.98
2018-04-23T05:27:13.919Z,82.32
2018-04-23T05:32:14.891Z,80.96
2018-04-23T05:37:15.865Z,80.35
2018-04-23T05:42:16.858Z,80.60
2018-04-23T05:47:17.823Z,79.28
2018-04-23T05:52:18.788Z,79.43
2018-04-23T05:57:19.775Z,78.32
2018-04-23T06:02:20.723Z,79.74
2018-04-23T06:07:21.697Z,80.02
2018-04-23T06:12:22.659Z,79.28
2018-04-23T06:17:23.636Z,78.49
2018-04-23T06:22:24.592Z,78.39
2018-04-23T06:27:25.570Z,78.17
2018-04-23T06:32:26.521Z,78.33
2018-04-23T06:37:27.518Z,78.61
2018-04-23T06:42:28.496Z,77.77
2018-04-23T06:47:29.482Z,76.87
2018-04-23T06:52:30.453Z,76.50
2018-04-23T06:57:31.448Z,78.57
2018-04-23T07:02:32.412Z,77.46
2018-04-23T07:07:33.408Z,78.27
2018-04-23T07:12:34.392Z,78.55
2018-04-23T07:17:35.390Z,77.54
2018-04-23T07:22:36.360Z,79.23
2018-04-23T07:27:37.371Z,79.97
2018-04-23T07:32:38.325Z,80.61
2018-04-23T07:37:39.320Z,79.80
2018-04-23T07:42:40.276Z,81.05
2018-04-23T07:47:41.261Z,79.70
2018-04-23T07:52:42.221Z,79.01
2018-04-23T07:57:43.221Z,79.02
2018-04-23T08:02:44.195Z,77.74
2018-04-23T08:07:45.148Z,75.70
2018-04-23T08:12:46.115Z,76.98
2018-04-23T08:17:47.083Z,74.50
2018-04-23T08:22:50.064Z,75.66
2018-04-23T08:27:51.073Z,73.49
2018-04-23T08:32:52.064Z,71.54
2018-04-23T08:37:53.029Z,70.82
2018-04-23T08:42:53.999Z,68.50
2018-04-23T08:47:54.985Z,67.72
2018-04-23T08:52:55.960Z,66.31
2018-04-23T08:57:56.948Z,65.61
2018-04-23T09:02:57.913Z,66.67
2018-04-23T09:07:58.883Z,65.15
2018-04-23T09:12:59.847Z,66.29
2018-04-23T09:18:00.813Z,65.68
2018-04-23T09:23:01.780Z,64.53
2018-04-23T09:28:02.811Z,62.44
2018-04-23T09:33:03.816Z,59.69
2018-04-23T09:38:04.781Z,60.79
2018-04-23T09:43:05.748Z,63.36
2018-04-23T09:48:06.707Z,61.16
2018-04-23T09:53:07.692Z,60.38
2018-04-23T09:58:08.670Z,61.07
2018-04-23T10:03:09.652Z,59.75
2018-04-23T10:08:10.631Z,59.26
2018-04-23T10:13:11.592Z,58.92
2018-04-23T10:18:12.594Z,58.70
2018-04-23T10:23:13.564Z,58.12
2018-04-23T10:28:14.560Z,58.92
2018-04-23T10:33:15.554Z,59.56
2018-04-23T10:38:16.555Z,60.32
2018-04-23T10:43:17.615Z,61.66
2018-04-23T10:48:18.601Z,58.72
2018-04-23T10:53:19.593Z,59.65
2018-04-23T10:58:20.590Z,57.43
2018-04-23T11:03:21.572Z,59.12
2018-04-23T11:08:22.568Z,56.71
2018-04-23T11:13:23.535Z,54.39
2018-04-23T11:18:24.504Z,51.71
2018-04-23T11:23:25.485Z,49.47
2018-04-23T11:28:26.508Z,46.44
2018-04-23T11:33:27.482Z,48.71
2018-04-23T11:38:28.458Z,51.04
2018-04-23T11:43:29.429Z,50.61
2018-04-23T11:48:30.388Z,49.27
2018-04-23T11:53:31.371Z,50.42
2018-04-23T11:58:32.349Z,48.86
2018-04-23T12:03:33.303Z,49.78
2018-04-23T12:08:34.266Z,49.33
2018-04-23T12:13:35.244Z,47.64
2018-04-23T12:18:36.242Z,45.58
2018-04-23T12:23:37.244Z,44.21
2018-04-23T12:28:38.241Z,44.08
2018-04-23T12:33:39.226Z,44.92
2018-04-23T12:38:40.190Z,47.13
2018-04-23T12:43:41.144Z,45.81
2018-04-23T12:48:42.111Z,46.14
2018-04-23T12:53:43.079Z,47.87
2018-04-23T12:58:44.077Z,47.62
2018-04-23T13:03:45.042Z,46.91
2018-04-23T13:08:46.019Z,47.80
2018-04-23T13:19:02.968Z,42.78
2018-04-23T13:24:03.949Z,44.41
2018-04-23T13:29:04.961Z,42.76
2018-04-23T13:34:05.935Z,43.78
2018-04-23T13:39:06.917Z,43.21
2018-04-23T13:44:07.909Z,42.51
2018-04-23T13:49:08.875Z,43.72
2018-04-23T13:54:09.893Z,43.37
2018-04-23T13:59:10.877Z,42.04
2018-04-23T14:04:11.882Z,43.91
2018-04-23T14:09:12.877Z,43.44
2018-04-23T14:14:13.876Z,46.49
2018-04-23T14:19:14.856Z,42.79
2018-04-23T14:24:15.810Z,46.11
2018-04-23T14:29:16.832Z,44.57
2018-04-23T14:34:17.861Z,44.21
2018-04-23T14:39:18.845Z,41.20
2018-04-23T14:44:19.854Z,39.79
2018-04-23T14:49:20.850Z,39.76
2018-04-23T14:54:21.819Z,42.07
2018-04-23T14:59:22.820Z,39.59
2018-04-23T15:04:23.826Z,42.36
2018-04-23T15:09:24.802Z,42.86
2018-04-23T15:14:25.823Z,39.69
2018-04-23T15:19:26.806Z,38.38
2018-04-23T15:24:27.785Z,38.27
2018-04-23T15:29:28.805Z,37.67
2018-04-23T15:34:29.766Z,36.67
2018-04-23T15:39:30.753Z,38.62
2018-04-23T15:44:31.756Z,40.38
2018-04-23T15:49:32.748Z,40.16
2018-04-23T15:54:33.752Z,39.26
2018-04-23T15:59:34.725Z,40.25
2018-04-23T16:04:35.710Z,40.84
2018-04-23T16:09:36.679Z,40.71
2018-04-23T16:14:37.664Z,39.56
2018-04-23T16:19:39.093Z,41.01
2018-04-23T16:24:40.124Z,41.80
2018-04-23T16:29:41.100Z,43.45
2018-04-23T16:34:42.086Z,44.67
2018-04-23T16:39:43.079Z,45.07
2018-04-23T16:44:44.088Z,49.07
2018-04-23T16:49:45.080Z,48.30
2018-04-23T16:54:46.127Z,49.83
2018-04-23T16:59:47.093Z,50.87
2018-04-23T17:04:48.088Z,50.68
2018-04-23T17:09:49.174Z,50.05
2018-04-23T17:14:50.176Z,49.50
2018-04-23T17:19:51.197Z,49.11
2018-04-23T17:24:52.187Z,49.62
2018-04-23T17:29:53.253Z,50.41
2018-04-23T17:34:54.276Z,52.33
2018-04-23T17:39:55.300Z,52.41
2018-04-23T17:44:56.291Z,52.54
2018-04-23T17:49:57.279Z,52.85
2018-04-23T17:54:58.288Z,52.44
2018-04-23T17:59:59.289Z,54.27
2018-04-23T18:05:00.289Z,56.16
2018-04-23T18:10:01.271Z,56.60
2018-04-23T18:15:02.300Z,56.98
2018-04-23T18:20:03.420Z,57.43
2018-04-23T18:25:04.427Z,58.60
2018-04-23T18:30:05.515Z,58.34
2018-04-23T18:35:06.531Z,58.38
2018-04-23T18:40:07.521Z,59.02
2018-04-23T18:45:08.537Z,60.49
2018-04-23T18:50:09.527Z,60.64
2018-04-23T18:55:10.544Z,61.22
2018-04-23T19:00:11.528Z,61.08
2018-04-23T19:05:12.513Z,61.62
2018-04-23T19:10:13.528Z,61.46
2018-04-23T19:15:14.560Z,62.33
2018-04-23T19:20:15.623Z,62.38
2018-04-23T19:25:16.673Z,64.58
2018-04-23T19:30:17.678Z,64.29
2018-04-23T19:35:18.697Z,64.56
2018-04-23T19:40:19.734Z,65.09
2018-04-23T19:45:20.829Z,67.81
2018-04-23T19:50:21.786Z,67.35
2018-04-23T19:55:22.791Z,68.37
2018-04-23T20:00:23.790Z,66.27
2018-04-23T20:05:24.836Z,66.42
2018-04-23T20:10:25.853Z,67.70
2018-04-23T20:15:26.859Z,68.57
2018-04-23T20:20:27.877Z,71.84
2018-04-23T20:25:28.888Z,71.09
2018-04-23T20:30:29.968Z,70.88
2018-04-23T20:35:30.993Z,68.39
2018-04-23T20:40:31.984Z,69.31
2018-04-23T20:45:32.960Z,70.35
2018-04-23T20:50:33.978Z,70.18
2018-04-23T20:55:34.957Z,71.25
2018-04-23T21:00:35.971Z,70.42
2018-04-23T21:05:36.967Z,69.83
2018-04-23T21:10:37.960Z,72.06
2018-04-23T21:15:38.952Z,73.25
2018-04-23T21:20:39.955Z,72.00
2018-04-23T21:25:40.925Z,69.99
2018-04-23T21:30:42.038Z,74.00
2018-04-23T21:35:43.031Z,72.70
2018-04-23T21:40:43.974Z,72.25
2018-04-23T21:45:44.960Z,71.52
2018-04-23T21:50:46.013Z,72.09
2018-04-23T21:55:46.914Z,73.80
2018-04-23T22:00:47.899Z,75.24
2018-04-23T22:05:49.622Z,75.25
2018-04-23T22:10:51.503Z,73.50
2018-04-23T22:15:53.370Z,73.92
2018-04-23T22:20:54.494Z,73.93
2018-04-23T22:25:55.485Z,73.30
2018-04-23T22:30:56.490Z,73.93
2018-04-23T22:35:57.465Z,74.86
2018-04-23T22:40:58.425Z,72.19
2018-04-23T22:45:59.405Z,72.06
2018-04-23T22:51:00.527Z,72.69
2018-04-23T22:56:01.490Z,74.18
2018-04-23T23:01:02.470Z,73.33
2018-04-23T23:06:03.486Z,72.54
2018-04-23T23:11:04.468Z,75.93
2018-04-23T23:16:05.422Z,72.93
2018-04-23T23:21:06.383Z,73.71
2018-04-23T23:26:07.350Z,74.96
2018-04-23T23:31:08.361Z,74.22
2018-04-23T23:36:09.321Z,75.08
2018-04-23T23:41:10.300Z,76.49
2018-04-23T23:46:11.288Z,75.27
2018-04-23T23:51:12.262Z,74.71
2018-04-23T23:56:13.212Z,72.91
